sensor_id;sensor_type;location;lat;lon;timestamp;temperature;humidity
12477;DHT22;6303;51.504;6.300;2023-03-12T00:01:17;21.30;48.30
12477;DHT22;6303;51.504;6.300;2023-03-12T00:03:44;21.30;48.30
12477;DHT22;6303;51.504;6.300;2023-03-12T00:06:12;21.30;48.30
12477;DHT22;6303;51.504;6.300;2023-03-12T00:08:40;21.30;48.30
12477;DHT22;6303;51.504;6.300;2023-03-12T00:11:09;21.30;48.20
12477;DHT22;6303;51.504;6.300;2023-03-12T00:13:36;21.30;48.30
12477;DHT22;6303;51.504;6.300;2023-03-12T00:16:05;21.30;48.30
12477;DHT22;6303;51.504;6.300;2023-03-12T00:18:33;21.30;48.30
12477;DHT22;6303;51.504;6.300;2023-03-12T00:21:00;21.30;48.30
12477;DHT22;6303;51.504;6.300;2023-03-12T00:23:27;21.30;48.20
12477;DHT22;6303;51.504;6.300;2023-03-12T00:26:00;21.30;48.30
12477;DHT22;6303;51.504;6.300;2023-03-12T00:28:27;21.30;48.30
12477;DHT22;6303;51.504;6.300;2023-03-12T00:30:54;21.30;48.40
12477;DHT22;6303;51.504;6.300;2023-03-12T00:33:23;21.30;48.30
12477;DHT22;6303;51.504;6.300;2023-03-12T00:35:50;21.30;48.30
12477;DHT22;6303;51.504;6.300;2023-03-12T00:38:18;21.30;48.30
12477;DHT22;6303;51.504;6.300;2023-03-12T00:40:47;21.30;48.30
12477;DHT22;6303;51.504;6.300;2023-03-12T00:43:15;21.30;48.40
12477;DHT22;6303;51.504;6.300;2023-03-12T00:45:44;21.20;48.30
12477;DHT22;6303;51.504;6.300;2023-03-12T00:48:11;21.30;48.30
12477;DHT22;6303;51.504;6.300;2023-03-12T00:50:38;21.30;48.30
12477;DHT22;6303;51.504;6.300;2023-03-12T00:53:05;21.30;48.30
12477;DHT22;6303;51.504;6.300;2023-03-12T00:55:32;21.30;48.40
12477;DHT22;6303;51.504;6.300;2023-03-12T00:57:59;21.30;48.30
12477;DHT22;6303;51.504;6.300;2023-03-12T01:00:27;21.30;48.30
12477;DHT22;6303;51.504;6.300;2023-03-12T01:02:54;21.30;48.30
12477;DHT22;6303;51.504;6.300;2023-03-12T01:05:21;21.30;48.30
12477;DHT22;6303;51.504;6.300;2023-03-12T01:07:49;21.20;48.30
12477;DHT22;6303;51.504;6.300;2023-03-12T01:10:18;21.20;48.20
12477;DHT22;6303;51.504;6.300;2023-03-12T01:12:45;21.20;48.20
12477;DHT22;6303;51.504;6.300;2023-03-12T01:15:14;21.20;48.10
12477;DHT22;6303;51.504;6.300;2023-03-12T01:17:43;21.20;47.90
12477;DHT22;6303;51.504;6.300;2023-03-12T01:20:11;21.20;48.10
12477;DHT22;6303;51.504;6.300;2023-03-12T01:22:38;21.10;48.10
12477;DHT22;6303;51.504;6.300;2023-03-12T01:25:06;21.20;48.20
12477;DHT22;6303;51.504;6.300;2023-03-12T01:27:33;21.20;48.30
12477;DHT22;6303;51.504;6.300;2023-03-12T01:30:00;21.10;48.10
12477;DHT22;6303;51.504;6.300;2023-03-12T01:32:27;21.10;48.00
12477;DHT22;6303;51.504;6.300;2023-03-12T01:34:56;21.00;48.10
12477;DHT22;6303;51.504;6.300;2023-03-12T01:37:25;21.10;48.00
12477;DHT22;6303;51.504;6.300;2023-03-12T01:39:52;21.10;48.20
12477;DHT22;6303;51.504;6.300;2023-03-12T01:42:19;21.10;48.30
12477;DHT22;6303;51.504;6.300;2023-03-12T01:44:51;21.10;48.30
12477;DHT22;6303;51.504;6.300;2023-03-12T01:47:19;21.10;48.20
12477;DHT22;6303;51.504;6.300;2023-03-12T01:49:47;21.10;48.40
12477;DHT22;6303;51.504;6.300;2023-03-12T01:52:20;21.00;48.40
12477;DHT22;6303;51.504;6.300;2023-03-12T01:54:55;20.30;48.00
12477;DHT22;6303;51.504;6.300;2023-03-12T01:57:28;21.10;48.50
12477;DHT22;6303;51.504;6.300;2023-03-12T01:59:59;21.10;48.60
12477;DHT22;6303;51.504;6.300;2023-03-12T02:02:40;21.10;48.50
12477;DHT22;6303;51.504;6.300;2023-03-12T02:05:17;21.10;48.60
12477;DHT22;6303;51.504;6.300;2023-03-12T02:07:47;21.10;48.50
12477;DHT22;6303;51.504;6.300;2023-03-12T02:10:14;21.10;48.50
12477;DHT22;6303;51.504;6.300;2023-03-12T02:12:42;21.10;48.40
12477;DHT22;6303;51.504;6.300;2023-03-12T02:15:10;21.10;48.40
12477;DHT22;6303;51.504;6.300;2023-03-12T02:17:37;21.10;48.20
12477;DHT22;6303;51.504;6.300;2023-03-12T02:20:14;21.10;48.30
12477;DHT22;6303;51.504;6.300;2023-03-12T02:22:48;21.00;48.20
12477;DHT22;6303;51.504;6.300;2023-03-12T02:25:25;21.00;48.10
12477;DHT22;6303;51.504;6.300;2023-03-12T02:27:56;21.00;48.10
12477;DHT22;6303;51.504;6.300;2023-03-12T02:30:25;21.00;48.20
12477;DHT22;6303;51.504;6.300;2023-03-12T02:32:53;21.00;48.30
12477;DHT22;6303;51.504;6.300;2023-03-12T02:35:21;20.90;48.50
12477;DHT22;6303;51.504;6.300;2023-03-12T02:37:49;21.00;48.40
12477;DHT22;6303;51.504;6.300;2023-03-12T02:40:21;21.00;48.30
12477;DHT22;6303;51.504;6.300;2023-03-12T02:42:51;21.00;48.50
12477;DHT22;6303;51.504;6.300;2023-03-12T02:45:18;20.90;48.40
12477;DHT22;6303;51.504;6.300;2023-03-12T02:47:46;20.90;48.50
12477;DHT22;6303;51.504;6.300;2023-03-12T02:50:13;20.90;48.60
12477;DHT22;6303;51.504;6.300;2023-03-12T02:52:40;20.90;48.50
12477;DHT22;6303;51.504;6.300;2023-03-12T02:55:08;20.90;48.60
12477;DHT22;6303;51.504;6.300;2023-03-12T02:57:36;20.90;48.60
12477;DHT22;6303;51.504;6.300;2023-03-12T03:00:15;20.90;48.70
12477;DHT22;6303;51.504;6.300;2023-03-12T03:02:47;20.90;48.90
12477;DHT22;6303;51.504;6.300;2023-03-12T03:05:14;20.90;48.60
12477;DHT22;6303;51.504;6.300;2023-03-12T03:07:41;20.90;48.80
12477;DHT22;6303;51.504;6.300;2023-03-12T03:10:09;20.90;48.70
12477;DHT22;6303;51.504;6.300;2023-03-12T03:12:37;21.00;48.60
12477;DHT22;6303;51.504;6.300;2023-03-12T03:15:06;21.00;48.60
12477;DHT22;6303;51.504;6.300;2023-03-12T03:17:35;20.90;48.50
12477;DHT22;6303;51.504;6.300;2023-03-12T03:20:02;21.00;48.70
12477;DHT22;6303;51.504;6.300;2023-03-12T03:22:32;20.90;48.80
12477;DHT22;6303;51.504;6.300;2023-03-12T03:24:59;20.90;48.80
12477;DHT22;6303;51.504;6.300;2023-03-12T03:27:26;20.90;48.60
12477;DHT22;6303;51.504;6.300;2023-03-12T03:29:53;20.90;48.70
12477;DHT22;6303;51.504;6.300;2023-03-12T03:32:20;20.90;48.50
12477;DHT22;6303;51.504;6.300;2023-03-12T03:34:49;21.00;48.60
12477;DHT22;6303;51.504;6.300;2023-03-12T03:37:17;20.90;48.50
12477;DHT22;6303;51.504;6.300;2023-03-12T03:39:44;20.90;48.80
12477;DHT22;6303;51.504;6.300;2023-03-12T03:42:11;20.90;48.70
12477;DHT22;6303;51.504;6.300;2023-03-12T03:44:38;21.00;48.40
12477;DHT22;6303;51.504;6.300;2023-03-12T03:47:06;21.00;48.10
12477;DHT22;6303;51.504;6.300;2023-03-12T03:49:33;21.00;48.10
12477;DHT22;6303;51.504;6.300;2023-03-12T03:52:01;21.00;48.30
12477;DHT22;6303;51.504;6.300;2023-03-12T03:54:33;21.00;48.30
12477;DHT22;6303;51.504;6.300;2023-03-12T03:57:01;21.00;48.10
12477;DHT22;6303;51.504;6.300;2023-03-12T03:59:28;21.00;48.70
12477;DHT22;6303;51.504;6.300;2023-03-12T04:01:56;21.30;48.30
12477;DHT22;6303;51.504;6.300;2023-03-12T04:04:24;21.00;48.10
12477;DHT22;6303;51.504;6.300;2023-03-12T04:06:51;20.80;47.80
12477;DHT22;6303;51.504;6.300;2023-03-12T04:09:20;21.00;47.80
12477;DHT22;6303;51.504;6.300;2023-03-12T04:11:47;21.00;47.70
12477;DHT22;6303;51.504;6.300;2023-03-12T04:14:14;21.00;47.70
12477;DHT22;6303;51.504;6.300;2023-03-12T04:16:44;21.00;47.80
12477;DHT22;6303;51.504;6.300;2023-03-12T04:19:11;21.00;48.00
12477;DHT22;6303;51.504;6.300;2023-03-12T04:21:38;21.00;48.10
12477;DHT22;6303;51.504;6.300;2023-03-12T04:24:07;21.00;48.10
12477;DHT22;6303;51.504;6.300;2023-03-12T04:26:39;21.00;47.80
12477;DHT22;6303;51.504;6.300;2023-03-12T04:29:07;21.00;47.60
12477;DHT22;6303;51.504;6.300;2023-03-12T04:31:34;21.00;47.70
12477;DHT22;6303;51.504;6.300;2023-03-12T04:34:02;21.00;47.90
12477;DHT22;6303;51.504;6.300;2023-03-12T04:36:29;21.00;48.00
12477;DHT22;6303;51.504;6.300;2023-03-12T04:38:56;21.00;48.00
12477;DHT22;6303;51.504;6.300;2023-03-12T04:41:28;21.00;48.10
12477;DHT22;6303;51.504;6.300;2023-03-12T04:44:02;21.00;48.00
12477;DHT22;6303;51.504;6.300;2023-03-12T04:46:30;21.00;47.90
12477;DHT22;6303;51.504;6.300;2023-03-12T04:48:57;21.00;47.80
12477;DHT22;6303;51.504;6.300;2023-03-12T04:51:30;21.00;47.80
12477;DHT22;6303;51.504;6.300;2023-03-12T04:53:58;21.00;47.70
12477;DHT22;6303;51.504;6.300;2023-03-12T04:56:25;21.00;47.40
12477;DHT22;6303;51.504;6.300;2023-03-12T04:58:53;21.00;47.30
12477;DHT22;6303;51.504;6.300;2023-03-12T05:01:25;21.00;47.30
12477;DHT22;6303;51.504;6.300;2023-03-12T05:03:52;21.00;47.40
12477;DHT22;6303;51.504;6.300;2023-03-12T05:06:20;21.00;47.50
12477;DHT22;6303;51.504;6.300;2023-03-12T05:08:47;21.00;47.70
12477;DHT22;6303;51.504;6.300;2023-03-12T05:11:15;21.00;47.80
12477;DHT22;6303;51.504;6.300;2023-03-12T05:13:43;21.00;47.90
12477;DHT22;6303;51.504;6.300;2023-03-12T05:16:10;20.90;47.80
12477;DHT22;6303;51.504;6.300;2023-03-12T05:18:39;20.90;47.90
12477;DHT22;6303;51.504;6.300;2023-03-12T05:21:08;20.90;47.90
12477;DHT22;6303;51.504;6.300;2023-03-12T05:23:36;20.90;48.10
12477;DHT22;6303;51.504;6.300;2023-03-12T05:26:04;20.90;48.20
12477;DHT22;6303;51.504;6.300;2023-03-12T05:28:32;20.90;48.30
12477;DHT22;6303;51.504;6.300;2023-03-12T05:31:08;20.90;48.20
12477;DHT22;6303;51.504;6.300;2023-03-12T05:33:35;20.90;48.10
12477;DHT22;6303;51.504;6.300;2023-03-12T05:36:05;20.90;48.20
12477;DHT22;6303;51.504;6.300;2023-03-12T05:38:32;20.90;48.30
12477;DHT22;6303;51.504;6.300;2023-03-12T05:41:00;20.90;48.20
12477;DHT22;6303;51.504;6.300;2023-03-12T05:43:29;20.90;48.20
12477;DHT22;6303;51.504;6.300;2023-03-12T05:45:58;20.90;48.40
12477;DHT22;6303;51.504;6.300;2023-03-12T05:48:27;20.90;48.40
12477;DHT22;6303;51.504;6.300;2023-03-12T05:50:54;20.90;48.30
12477;DHT22;6303;51.504;6.300;2023-03-12T05:53:23;20.90;48.30
12477;DHT22;6303;51.504;6.300;2023-03-12T05:55:51;20.90;48.40
12477;DHT22;6303;51.504;6.300;2023-03-12T05:58:19;20.90;48.40
12477;DHT22;6303;51.504;6.300;2023-03-12T06:00:47;20.90;48.30
12477;DHT22;6303;51.504;6.300;2023-03-12T06:03:14;20.90;48.50
12477;DHT22;6303;51.504;6.300;2023-03-12T06:05:43;20.90;48.40
12477;DHT22;6303;51.504;6.300;2023-03-12T06:08:13;20.90;48.20
12477;DHT22;6303;51.504;6.300;2023-03-12T06:10:41;20.90;48.20
12477;DHT22;6303;51.504;6.300;2023-03-12T06:13:09;20.90;48.20
12477;DHT22;6303;51.504;6.300;2023-03-12T06:15:36;20.90;48.40
12477;DHT22;6303;51.504;6.300;2023-03-12T06:18:05;20.90;48.20
12477;DHT22;6303;51.504;6.300;2023-03-12T06:20:33;20.90;48.10
12477;DHT22;6303;51.504;6.300;2023-03-12T06:23:01;20.90;48.20
12477;DHT22;6303;51.504;6.300;2023-03-12T06:25:30;20.90;48.20
12477;DHT22;6303;51.504;6.300;2023-03-12T06:27:58;20.90;48.10
12477;DHT22;6303;51.504;6.300;2023-03-12T06:30:25;20.90;47.80
12477;DHT22;6303;51.504;6.300;2023-03-12T06:32:53;20.90;47.70
12477;DHT22;6303;51.504;6.300;2023-03-12T06:35:20;20.90;47.60
12477;DHT22;6303;51.504;6.300;2023-03-12T06:37:47;20.90;47.40
12477;DHT22;6303;51.504;6.300;2023-03-12T06:40:14;20.90;47.40
12477;DHT22;6303;51.504;6.300;2023-03-12T06:42:42;20.90;47.50
12477;DHT22;6303;51.504;6.300;2023-03-12T06:45:11;20.90;47.60
12477;DHT22;6303;51.504;6.300;2023-03-12T06:47:38;20.90;47.70
12477;DHT22;6303;51.504;6.300;2023-03-12T06:50:05;20.90;47.60
12477;DHT22;6303;51.504;6.300;2023-03-12T06:52:32;20.90;47.60
12477;DHT22;6303;51.504;6.300;2023-03-12T06:54:59;20.90;47.50
12477;DHT22;6303;51.504;6.300;2023-03-12T06:57:26;20.90;47.40
12477;DHT22;6303;51.504;6.300;2023-03-12T06:59:53;20.90;47.50
12477;DHT22;6303;51.504;6.300;2023-03-12T07:02:21;20.90;47.60
12477;DHT22;6303;51.504;6.300;2023-03-12T07:04:48;20.90;47.70
12477;DHT22;6303;51.504;6.300;2023-03-12T07:07:15;20.90;47.70
12477;DHT22;6303;51.504;6.300;2023-03-12T07:09:42;20.90;47.50
12477;DHT22;6303;51.504;6.300;2023-03-12T07:12:10;20.90;47.50
12477;DHT22;6303;51.504;6.300;2023-03-12T07:14:37;20.90;47.50
12477;DHT22;6303;51.504;6.300;2023-03-12T07:17:04;20.90;47.50
12477;DHT22;6303;51.504;6.300;2023-03-12T07:19:32;20.90;47.40
12477;DHT22;6303;51.504;6.300;2023-03-12T07:22:00;20.90;47.30
12477;DHT22;6303;51.504;6.300;2023-03-12T07:24:27;20.90;47.20
12477;DHT22;6303;51.504;6.300;2023-03-12T07:26:54;20.90;47.30
12477;DHT22;6303;51.504;6.300;2023-03-12T07:29:21;20.90;47.40
12477;DHT22;6303;51.504;6.300;2023-03-12T07:31:48;20.90;47.30
12477;DHT22;6303;51.504;6.300;2023-03-12T07:34:15;20.90;47.30
12477;DHT22;6303;51.504;6.300;2023-03-12T07:36:43;20.90;47.20
12477;DHT22;6303;51.504;6.300;2023-03-12T07:39:10;20.90;47.50
12477;DHT22;6303;51.504;6.300;2023-03-12T07:41:37;20.90;48.30
12477;DHT22;6303;51.504;6.300;2023-03-12T07:44:05;20.90;49.00
12477;DHT22;6303;51.504;6.300;2023-03-12T07:46:32;21.00;48.90
12477;DHT22;6303;51.504;6.300;2023-03-12T07:48:59;21.00;48.70
12477;DHT22;6303;51.504;6.300;2023-03-12T07:51:26;21.00;48.60
12477;DHT22;6303;51.504;6.300;2023-03-12T07:53:55;21.10;48.50
12477;DHT22;6303;51.504;6.300;2023-03-12T07:56:22;21.10;48.40
12477;DHT22;6303;51.504;6.300;2023-03-12T07:58:49;21.00;48.10
12477;DHT22;6303;51.504;6.300;2023-03-12T08:01:16;21.10;48.10
12477;DHT22;6303;51.504;6.300;2023-03-12T08:03:43;21.10;48.20
12477;DHT22;6303;51.504;6.300;2023-03-12T08:06:10;21.10;48.10
12477;DHT22;6303;51.504;6.300;2023-03-12T08:08:37;21.10;48.10
12477;DHT22;6303;51.504;6.300;2023-03-12T08:11:08;21.20;48.20
12477;DHT22;6303;51.504;6.300;2023-03-12T08:13:35;21.20;48.20
12477;DHT22;6303;51.504;6.300;2023-03-12T08:16:03;22.50;48.70
12477;DHT22;6303;51.504;6.300;2023-03-12T08:18:30;21.20;48.10
12477;DHT22;6303;51.504;6.300;2023-03-12T08:20:57;21.20;48.10
12477;DHT22;6303;51.504;6.300;2023-03-12T08:23:24;21.20;48.10
12477;DHT22;6303;51.504;6.300;2023-03-12T08:25:52;21.20;48.00
12477;DHT22;6303;51.504;6.300;2023-03-12T08:28:22;21.20;47.80
12477;DHT22;6303;51.504;6.300;2023-03-12T08:30:51;21.20;47.90
12477;DHT22;6303;51.504;6.300;2023-03-12T08:33:19;21.40;47.90
12477;DHT22;6303;51.504;6.300;2023-03-12T08:35:48;21.20;48.10
12477;DHT22;6303;51.504;6.300;2023-03-12T08:38:15;21.20;48.40
12477;DHT22;6303;51.504;6.300;2023-03-12T08:40:42;21.20;48.30
12477;DHT22;6303;51.504;6.300;2023-03-12T08:43:09;21.20;48.10
12477;DHT22;6303;51.504;6.300;2023-03-12T08:45:38;21.20;48.10
12477;DHT22;6303;51.504;6.300;2023-03-12T08:48:07;21.20;48.10
12477;DHT22;6303;51.504;6.300;2023-03-12T08:50:34;21.20;48.10
12477;DHT22;6303;51.504;6.300;2023-03-12T08:53:01;21.20;48.10
12477;DHT22;6303;51.504;6.300;2023-03-12T08:55:28;21.20;47.90
12477;DHT22;6303;51.504;6.300;2023-03-12T08:57:56;21.20;47.90
12477;DHT22;6303;51.504;6.300;2023-03-12T09:00:23;21.20;47.90
12477;DHT22;6303;51.504;6.300;2023-03-12T09:02:51;21.20;48.00
12477;DHT22;6303;51.504;6.300;2023-03-12T09:05:18;21.20;48.00
12477;DHT22;6303;51.504;6.300;2023-03-12T09:07:46;21.20;47.90
12477;DHT22;6303;51.504;6.300;2023-03-12T09:10:14;21.20;47.90
12477;DHT22;6303;51.504;6.300;2023-03-12T09:12:42;21.20;48.10
12477;DHT22;6303;51.504;6.300;2023-03-12T09:15:09;21.20;48.20
12477;DHT22;6303;51.504;6.300;2023-03-12T09:17:37;21.20;48.30
12477;DHT22;6303;51.504;6.300;2023-03-12T09:20:08;21.20;48.40
12477;DHT22;6303;51.504;6.300;2023-03-12T09:22:35;21.20;48.10
12477;DHT22;6303;51.504;6.300;2023-03-12T09:25:03;21.20;48.00
12477;DHT22;6303;51.504;6.300;2023-03-12T09:27:34;21.20;47.90
12477;DHT22;6303;51.504;6.300;2023-03-12T09:30:01;21.20;48.10
12477;DHT22;6303;51.504;6.300;2023-03-12T09:32:28;21.30;48.30
12477;DHT22;6303;51.504;6.300;2023-03-12T09:34:55;21.20;48.20
12477;DHT22;6303;51.504;6.300;2023-03-12T09:37:23;21.20;48.10
12477;DHT22;6303;51.504;6.300;2023-03-12T09:39:50;21.30;48.20
12477;DHT22;6303;51.504;6.300;2023-03-12T09:42:22;21.30;48.20
12477;DHT22;6303;51.504;6.300;2023-03-12T09:44:51;21.30;48.20
12477;DHT22;6303;51.504;6.300;2023-03-12T09:47:25;21.30;48.20
12477;DHT22;6303;51.504;6.300;2023-03-12T09:49:55;21.30;48.20
12477;DHT22;6303;51.504;6.300;2023-03-12T09:52:29;21.30;48.10
12477;DHT22;6303;51.504;6.300;2023-03-12T09:55:02;21.30;48.10
12477;DHT22;6303;51.504;6.300;2023-03-12T09:57:32;21.30;48.10
12477;DHT22;6303;51.504;6.300;2023-03-12T09:59:59;21.40;48.10
12477;DHT22;6303;51.504;6.300;2023-03-12T10:05:35;21.40;48.00
12477;DHT22;6303;51.504;6.300;2023-03-12T10:08:09;21.40;47.90
12477;DHT22;6303;51.504;6.300;2023-03-12T10:10:49;21.40;47.90
12477;DHT22;6303;51.504;6.300;2023-03-12T10:16:27;21.50;47.90
12477;DHT22;6303;51.504;6.300;2023-03-12T10:19:04;21.50;47.90
12477;DHT22;6303;51.504;6.300;2023-03-12T10:21:40;21.50;47.80
12477;DHT22;6303;51.504;6.300;2023-03-12T10:24:22;21.50;47.80
12477;DHT22;6303;51.504;6.300;2023-03-12T10:26:54;21.50;47.80
12477;DHT22;6303;51.504;6.300;2023-03-12T10:29:25;21.50;47.80
12477;DHT22;6303;51.504;6.300;2023-03-12T10:31:58;21.60;48.00
12477;DHT22;6303;51.504;6.300;2023-03-12T10:34:30;21.60;47.90
12477;DHT22;6303;51.504;6.300;2023-03-12T10:37:03;21.60;47.90
12477;DHT22;6303;51.504;6.300;2023-03-12T10:39:32;21.60;47.90
12477;DHT22;6303;51.504;6.300;2023-03-12T10:41:59;21.70;47.80
12477;DHT22;6303;51.504;6.300;2023-03-12T10:44:27;21.70;47.70
12477;DHT22;6303;51.504;6.300;2023-03-12T10:47:12;21.70;47.70
12477;DHT22;6303;51.504;6.300;2023-03-12T10:49:44;21.70;47.70
12477;DHT22;6303;51.504;6.300;2023-03-12T10:52:16;21.70;47.70
12477;DHT22;6303;51.504;6.300;2023-03-12T10:54:47;21.80;47.70
12477;DHT22;6303;51.504;6.300;2023-03-12T10:57:16;21.70;47.70
12477;DHT22;6303;51.504;6.300;2023-03-12T10:59:45;21.80;47.70
12477;DHT22;6303;51.504;6.300;2023-03-12T11:02:28;21.80;47.80
12477;DHT22;6303;51.504;6.300;2023-03-12T11:04:57;21.80;47.60
12477;DHT22;6303;51.504;6.300;2023-03-12T11:07:27;21.90;47.60
12477;DHT22;6303;51.504;6.300;2023-03-12T11:10:15;21.90;47.50
12477;DHT22;6303;51.504;6.300;2023-03-12T11:12:53;21.90;47.60
12477;DHT22;6303;51.504;6.300;2023-03-12T11:15:22;21.90;47.60
12477;DHT22;6303;51.504;6.300;2023-03-12T11:17:49;22.00;47.60
12477;DHT22;6303;51.504;6.300;2023-03-12T11:20:28;22.00;47.70
12477;DHT22;6303;51.504;6.300;2023-03-12T11:22:55;22.00;47.60
12477;DHT22;6303;51.504;6.300;2023-03-12T11:25:26;22.00;47.60
12477;DHT22;6303;51.504;6.300;2023-03-12T11:27:54;22.10;47.60
12477;DHT22;6303;51.504;6.300;2023-03-12T11:30:25;22.10;47.50
12477;DHT22;6303;51.504;6.300;2023-03-12T11:32:54;22.10;47.50
12477;DHT22;6303;51.504;6.300;2023-03-12T11:35:33;22.10;47.30
12477;DHT22;6303;51.504;6.300;2023-03-12T11:38:12;21.60;47.10
12477;DHT22;6303;51.504;6.300;2023-03-12T11:40:55;22.10;47.40
12477;DHT22;6303;51.504;6.300;2023-03-12T11:43:37;22.10;47.40
12477;DHT22;6303;51.504;6.300;2023-03-12T11:46:16;22.20;47.40
12477;DHT22;6303;51.504;6.300;2023-03-12T11:48:54;22.20;47.40
12477;DHT22;6303;51.504;6.300;2023-03-12T11:51:31;22.20;47.40
12477;DHT22;6303;51.504;6.300;2023-03-12T11:54:24;22.20;47.30
12477;DHT22;6303;51.504;6.300;2023-03-12T11:56:56;22.20;47.30
12477;DHT22;6303;51.504;6.300;2023-03-12T11:59:42;22.20;47.30
12477;DHT22;6303;51.504;6.300;2023-03-12T12:02:36;22.20;47.30
12477;DHT22;6303;51.504;6.300;2023-03-12T12:08:27;22.20;47.30
12477;DHT22;6303;51.504;6.300;2023-03-12T12:11:04;22.20;47.30
12477;DHT22;6303;51.504;6.300;2023-03-12T12:13:44;22.20;47.30
12477;DHT22;6303;51.504;6.300;2023-03-12T12:16:22;22.20;47.30
12477;DHT22;6303;51.504;6.300;2023-03-12T12:19:05;22.20;47.30
12477;DHT22;6303;51.504;6.300;2023-03-12T12:21:50;22.20;47.30
12477;DHT22;6303;51.504;6.300;2023-03-12T12:24:28;22.20;47.30
12477;DHT22;6303;51.504;6.300;2023-03-12T12:27:06;22.20;47.20
12477;DHT22;6303;51.504;6.300;2023-03-12T12:29:47;22.20;47.30
12477;DHT22;6303;51.504;6.300;2023-03-12T12:32:25;22.20;47.30
12477;DHT22;6303;51.504;6.300;2023-03-12T12:35:04;22.20;47.40
12477;DHT22;6303;51.504;6.300;2023-03-12T12:37:45;22.20;47.40
12477;DHT22;6303;51.504;6.300;2023-03-12T12:40:19;22.30;47.40
12477;DHT22;6303;51.504;6.300;2023-03-12T12:43:05;22.30;47.30
12477;DHT22;6303;51.504;6.300;2023-03-12T12:45:40;22.30;47.40
12477;DHT22;6303;51.504;6.300;2023-03-12T12:48:11;22.30;47.30
12477;DHT22;6303;51.504;6.300;2023-03-12T12:50:41;22.30;47.40
12477;DHT22;6303;51.504;6.300;2023-03-12T12:53:14;22.30;47.50
12477;DHT22;6303;51.504;6.300;2023-03-12T12:55:52;22.30;47.50
12477;DHT22;6303;51.504;6.300;2023-03-12T12:58:29;22.40;47.50
12477;DHT22;6303;51.504;6.300;2023-03-12T13:01:00;22.40;47.40
12477;DHT22;6303;51.504;6.300;2023-03-12T13:03:28;22.40;47.40
12477;DHT22;6303;51.504;6.300;2023-03-12T13:05:58;22.40;47.40
12477;DHT22;6303;51.504;6.300;2023-03-12T13:08:58;22.40;47.40
12477;DHT22;6303;51.504;6.300;2023-03-12T13:11:29;22.50;47.40
12477;DHT22;6303;51.504;6.300;2023-03-12T13:17:24;22.40;47.30
12477;DHT22;6303;51.504;6.300;2023-03-12T13:19:58;22.40;47.40
12477;DHT22;6303;51.504;6.300;2023-03-12T13:22:39;22.40;47.50
12477;DHT22;6303;51.504;6.300;2023-03-12T13:25:19;22.40;47.50
12477;DHT22;6303;51.504;6.300;2023-03-12T13:27:57;22.40;47.40
12477;DHT22;6303;51.504;6.300;2023-03-12T13:30:46;22.40;47.40
12477;DHT22;6303;51.504;6.300;2023-03-12T13:33:16;22.50;47.40
12477;DHT22;6303;51.504;6.300;2023-03-12T13:36:09;22.50;47.50
12477;DHT22;6303;51.504;6.300;2023-03-12T13:38:38;22.50;47.50
12477;DHT22;6303;51.504;6.300;2023-03-12T13:41:30;22.50;47.40
12477;DHT22;6303;51.504;6.300;2023-03-12T13:43:57;22.50;47.50
12477;DHT22;6303;51.504;6.300;2023-03-12T13:46:36;22.50;47.40
12477;DHT22;6303;51.504;6.300;2023-03-12T13:49:14;22.50;47.50
12477;DHT22;6303;51.504;6.300;2023-03-12T13:51:53;22.50;47.40
12477;DHT22;6303;51.504;6.300;2023-03-12T13:54:26;22.80;48.10
12477;DHT22;6303;51.504;6.300;2023-03-12T13:56:56;22.60;47.40
12477;DHT22;6303;51.504;6.300;2023-03-12T13:59:25;22.60;47.40
12477;DHT22;6303;51.504;6.300;2023-03-12T14:01:56;22.60;47.40
12477;DHT22;6303;51.504;6.300;2023-03-12T14:04:33;22.70;47.40
12477;DHT22;6303;51.504;6.300;2023-03-12T14:10:18;22.70;47.30
12477;DHT22;6303;51.504;6.300;2023-03-12T14:12:53;22.80;47.50
12477;DHT22;6303;51.504;6.300;2023-03-12T14:15:29;22.70;47.50
12477;DHT22;6303;51.504;6.300;2023-03-12T14:18:08;22.70;47.70
12477;DHT22;6303;51.504;6.300;2023-03-12T14:20:40;22.70;47.80
12477;DHT22;6303;51.504;6.300;2023-03-12T14:23:12;22.70;47.90
12477;DHT22;6303;51.504;6.300;2023-03-12T14:25:42;22.70;48.00
12477;DHT22;6303;51.504;6.300;2023-03-12T14:28:13;22.70;48.00
12477;DHT22;6303;51.504;6.300;2023-03-12T14:30:45;22.70;48.10
12477;DHT22;6303;51.504;6.300;2023-03-12T14:33:15;22.70;48.30
12477;DHT22;6303;51.504;6.300;2023-03-12T14:35:47;22.80;48.20
12477;DHT22;6303;51.504;6.300;2023-03-12T14:38:20;22.90;48.00
12477;DHT22;6303;51.504;6.300;2023-03-12T14:40:54;22.90;48.10
12477;DHT22;6303;51.504;6.300;2023-03-12T14:43:24;22.90;48.10
12477;DHT22;6303;51.504;6.300;2023-03-12T14:45:56;22.90;48.10
12477;DHT22;6303;51.504;6.300;2023-03-12T14:48:27;22.90;48.00
12477;DHT22;6303;51.504;6.300;2023-03-12T14:50:57;22.90;48.00
12477;DHT22;6303;51.504;6.300;2023-03-12T14:53:26;23.00;48.30
12477;DHT22;6303;51.504;6.300;2023-03-12T14:56:01;23.00;48.40
12477;DHT22;6303;51.504;6.300;2023-03-12T14:58:29;23.00;48.50
12477;DHT22;6303;51.504;6.300;2023-03-12T15:00:58;23.00;48.50
12477;DHT22;6303;51.504;6.300;2023-03-12T15:03:26;22.90;48.40
12477;DHT22;6303;51.504;6.300;2023-03-12T15:05:56;23.10;48.50
12477;DHT22;6303;51.504;6.300;2023-03-12T15:08:24;23.10;48.60
12477;DHT22;6303;51.504;6.300;2023-03-12T15:10:55;23.20;48.70
12477;DHT22;6303;51.504;6.300;2023-03-12T15:13:23;23.10;48.60
12477;DHT22;6303;51.504;6.300;2023-03-12T15:15:53;23.10;48.70
12477;DHT22;6303;51.504;6.300;2023-03-12T15:18:23;23.10;48.70
12477;DHT22;6303;51.504;6.300;2023-03-12T15:20:52;23.20;48.70
12477;DHT22;6303;51.504;6.300;2023-03-12T15:23:23;23.20;48.70
12477;DHT22;6303;51.504;6.300;2023-03-12T15:26:11;23.20;48.60
12477;DHT22;6303;51.504;6.300;2023-03-12T15:28:39;23.20;48.50
12477;DHT22;6303;51.504;6.300;2023-03-12T15:31:10;23.30;48.50
12477;DHT22;6303;51.504;6.300;2023-03-12T15:33:39;23.30;48.30
12477;DHT22;6303;51.504;6.300;2023-03-12T15:36:23;23.30;48.90
12477;DHT22;6303;51.504;6.300;2023-03-12T15:38:54;23.30;48.30
12477;DHT22;6303;51.504;6.300;2023-03-12T15:41:26;23.30;48.30
12477;DHT22;6303;51.504;6.300;2023-03-12T15:43:55;23.30;48.20
12477;DHT22;6303;51.504;6.300;2023-03-12T15:46:23;23.30;48.20
12477;DHT22;6303;51.504;6.300;2023-03-12T15:48:53;23.30;48.20
12477;DHT22;6303;51.504;6.300;2023-03-12T15:51:30;23.30;48.30
12477;DHT22;6303;51.504;6.300;2023-03-12T15:54:02;23.30;48.30
12477;DHT22;6303;51.504;6.300;2023-03-12T15:56:31;23.30;48.30
12477;DHT22;6303;51.504;6.300;2023-03-12T15:59:01;23.30;48.40
12477;DHT22;6303;51.504;6.300;2023-03-12T16:01:29;23.30;48.30
12477;DHT22;6303;51.504;6.300;2023-03-12T16:04:08;23.30;48.20
12477;DHT22;6303;51.504;6.300;2023-03-12T16:06:36;23.30;48.30
12477;DHT22;6303;51.504;6.300;2023-03-12T16:09:04;23.30;48.30
12477;DHT22;6303;51.504;6.300;2023-03-12T16:11:34;23.40;48.40
12477;DHT22;6303;51.504;6.300;2023-03-12T16:14:04;23.40;48.40
12477;DHT22;6303;51.504;6.300;2023-03-12T16:16:32;22.10;48.10
12477;DHT22;6303;51.504;6.300;2023-03-12T16:18:59;23.30;48.70
12477;DHT22;6303;51.504;6.300;2023-03-12T16:21:26;23.30;48.60